Time;durP1;ratioP1;P1;durP2;ratioP2;P2;SDS_P1;SDS_P2;PMS_P1;PMS_P2;Temp;Humidity;BMP_temperature;BMP_pressure;BME280_temperature;BME280_humidity;BME280_pressure;Samples;Min_cycle;Max_cycle;Signal;HPM_P1;HPM_P2
2021/07/25 00:02:02;;;;;;;15.18;7.40;;;;;;;18.26;75.28;101001.62;1712074;82;21088;-66
2021/07/25 00:04:31;;;;;;;13.88;7.62;;;;;;;18.25;75.37;100998.59;1708763;82;21386;-67
2021/07/25 00:06:58;;;;;;;12.13;7.72;;;;;;;18.22;75.47;101004.52;1709043;84;21466;-68
2021/07/25 00:09:26;;;;;;;16.65;8.70;;;;;;;18.20;75.44;101006.47;1708839;84;20941;-66
2021/07/25 00:11:52;;;;;;;14.10;8.85;;;;;;;18.19;75.60;101003.96;1709074;84;20892;-66
2021/07/25 00:14:19;;;;;;;11.70;7.60;;;;;;;18.16;75.60;101006.40;1708979;84;21935;-67
2021/07/25 00:16:46;;;;;;;18.55;8.93;;;;;;;18.14;75.58;101006.15;1708924;84;20885;-67
2021/07/25 00:19:13;;;;;;;16.30;8.45;;;;;;;18.12;75.63;101005.44;1708865;82;20896;-67
2021/07/25 00:21:40;;;;;;;14.28;7.80;;;;;;;18.11;75.81;101015.71;1708902;84;21450;-66
2021/07/25 00:24:07;;;;;;;21.90;8.65;;;;;;;18.06;76.07;101019.26;1708981;84;20880;-67
2021/07/25 00:26:56;;;;;;;15.75;8.10;;;;;;;18.01;76.12;101019.16;1708871;84;21139;-68
2021/07/25 00:29:03;;;;;;;16.45;7.42;;;;;;;17.98;76.23;101019.89;1703115;84;21058;-67
2021/07/25 00:31:30;;;;;;;20.08;7.35;;;;;;;17.95;76.43;101007.73;1708845;84;20869;-67
2021/07/25 00:33:57;;;;;;;12.90;8.20;;;;;;;17.93;76.40;101012.81;1708909;82;20947;-68
2021/07/25 00:36:24;;;;;;;14.65;7.65;;;;;;;17.89;76.36;101014.05;1708863;84;21015;-68
2021/07/25 00:38:51;;;;;;;11.43;7.20;;;;;;;17.84;76.60;101012.27;1734093;82;21144;-68
2021/07/25 00:41:19;;;;;;;15.38;8.50;;;;;;;17.79;76.55;101014.80;1744452;81;20885;-66
2021/07/25 00:43:47;;;;;;;17.57;8.45;;;;;;;17.75;76.47;101016.02;1744596;81;20988;-67
2021/07/25 00:46:15;;;;;;;12.78;8.58;;;;;;;17.73;76.41;101015.80;1744569;81;20916;-67
2021/07/25 00:48:42;;;;;;;14.20;7.55;;;;;;;17.70;76.10;101016.89;1744931;82;21401;-67
2021/07/25 00:51:11;;;;;;;12.53;8.43;;;;;;;17.69;76.34;101014.36;1744501;82;21160;-67
2021/07/25 00:53:41;;;;;;;11.22;8.18;;;;;;;17.67;76.45;101022.93;1708807;83;20884;-68
2021/07/25 00:56:09;;;;;;;11.12;7.62;;;;;;;17.63;76.53;101021.50;1709001;82;20892;-67
2021/07/25 00:58:42;;;;;;;13.38;7.87;;;;;;;17.60;76.52;101022.11;1708789;84;21454;-66
2021/07/25 01:01:11;;;;;;;14.20;7.95;;;;;;;17.60;76.56;101023.92;1708754;82;20924;-66
2021/07/25 01:04:11;;;;;;;21.95;8.90;;;;;;;17.57;76.61;101021.05;1708813;84;21216;-68
2021/07/25 01:07:14;;;;;;;10.75;7.87;;;;;;;17.57;76.54;101025.52;1709104;82;20888;-66
2021/07/25 01:09:53;;;;;;;13.10;7.25;;;;;;;17.56;76.99;101031.77;1744676;82;20889;-67
2021/07/25 01:12:26;;;;;;;22.77;9.28;;;;;;;17.52;77.24;101035.64;1708833;82;21465;-66
2021/07/25 01:14:53;;;;;;;15.10;8.03;;;;;;;17.48;77.29;101033.75;1708871;84;21011;-67
2021/07/25 01:17:35;;;;;;;12.23;9.03;;;;;;;17.46;77.09;101029.05;1708957;84;21905;-67
2021/07/25 01:20:08;;;;;;;18.98;8.33;;;;;;;17.44;77.11;101030.98;1708659;84;20884;-67
2021/07/25 01:22:45;;;;;;;16.73;7.97;;;;;;;17.42;77.16;101040.05;1709111;84;21474;-68
2021/07/25 01:25:14;;;;;;;15.78;8.53;;;;;;;17.37;77.18;101035.95;1708716;82;20892;-67
2021/07/25 01:27:46;;;;;;;18.10;8.38;;;;;;;17.31;76.83;101031.14;1709016;84;20890;-67
2021/07/25 01:30:17;;;;;;;12.85;8.05;;;;;;;17.31;76.83;101031.14;1708919;84;20920;-67
2021/07/25 01:32:44;;;;;;;14.75;8.45;;;;;;;17.30;77.20;101040.08;1708925;84;20948;-66
2021/07/25 01:35:14;;;;;;;19.80;8.95;;;;;;;17.28;77.17;101035.39;1708935;82;21330;-67
2021/07/25 01:37:41;;;;;;;15.90;8.00;;;;;;;17.27;77.23;101035.50;1708871;84;20932;-67
2021/07/25 01:40:22;;;;;;;14.25;7.62;;;;;;;17.27;77.23;101035.50;1708804;84;20884;-67
2021/07/25 01:42:52;;;;;;;13.95;8.38;;;;;;;17.25;76.96;101034.29;1708942;82;21827;-67
2021/07/25 01:45:19;;;;;;;11.83;6.95;;;;;;;17.23;77.11;101038.91;1708024;84;21415;-67
2021/07/25 01:47:46;;;;;;;11.30;7.47;;;;;;;17.21;77.20;101043.48;1708806;84;21498;-67
2021/07/25 01:50:13;;;;;;;9.48;7.05;;;;;;;17.19;77.25;101042.77;1708872;84;20861;-67
2021/07/25 01:52:41;;;;;;;14.83;7.35;;;;;;;17.17;77.39;101042.05;1708903;84;20904;-66
2021/07/25 01:55:09;;;;;;;19.23;7.97;;;;;;;17.15;77.47;101046.14;1708866;84;21138;-66
2021/07/25 01:57:36;;;;;;;18.10;8.70;;;;;;;17.14;77.72;101039.63;1708824;84;20916;-66
2021/07/25 02:00:07;;;;;;;14.30;8.03;;;;;;;17.12;77.56;101050.37;1708863;84;21350;-67
2021/07/25 02:02:34;;;;;;;20.37;8.03;;;;;;;17.07;77.89;101046.39;1708793;83;21489;-67
2021/07/25 02:05:01;;;;;;;25.60;9.15;;;;;;;17.04;78.20;101044.84;1708949;84;20852;-67
2021/07/25 02:07:28;;;;;;;24.87;9.28;;;;;;;17.04;78.20;101044.84;1708831;82;21161;-67
2021/07/25 02:09:54;;;;;;;27.62;11.28;;;;;;;17.05;78.30;101048.33;1708722;84;20916;-67
2021/07/25 02:12:21;;;;;;;17.17;9.30;;;;;;;17.06;78.29;101056.16;1744629;80;20932;-67
2021/07/25 02:14:48;;;;;;;17.62;8.93;;;;;;;17.06;78.22;101051.35;1744565;82;20972;-68
2021/07/25 02:17:15;;;;;;;15.32;8.50;;;;;;;17.09;77.89;101053.74;1744569;81;21446;-68
2021/07/25 02:19:42;;;;;;;14.93;7.97;;;;;;;17.09;77.89;101053.74;1744551;82;21135;-67
2021/07/25 02:22:09;;;;;;;19.30;8.18;;;;;;;17.09;78.05;101057.72;1744665;82;21354;-66
2021/07/25 02:24:36;;;;;;;14.95;9.28;;;;;;;17.09;77.89;101051.92;1744620;81;20897;-66
2021/07/25 02:27:03;;;;;;;19.55;9.35;;;;;;;17.10;77.75;101054.12;1744667;82;20925;-69
2021/07/25 02:29:30;;;;;;;14.38;7.80;;;;;;;17.11;77.71;101057.11;1744931;82;21339;-66
2021/07/25 02:31:57;;;;;;;19.40;8.15;;;;;;;17.10;77.68;101061.58;1744726;81;22323;-65
2021/07/25 02:34:24;;;;;;;17.05;8.68;;;;;;;17.11;77.56;101065.90;1744639;81;20944;-66
2021/07/25 02:36:52;;;;;;;14.87;8.58;;;;;;;17.12;77.59;101066.27;1744741;81;20854;-67
2021/07/25 02:39:19;;;;;;;14.40;7.72;;;;;;;17.15;77.51;101066.50;1708871;84;20892;-66
2021/07/25 02:41:45;;;;;;;18.27;8.03;;;;;;;17.16;77.38;101062.41;1709259;82;21437;-67
2021/07/25 02:44:12;;;;;;;21.07;8.08;;;;;;;17.16;77.39;101067.72;1708960;84;21115;-67
2021/07/25 02:46:40;;;;;;;17.52;8.83;;;;;;;17.18;77.40;101068.89;1708835;84;20841;-67
2021/07/25 02:49:07;;;;;;;37.65;15.95;;;;;;;17.20;77.46;101069.62;1708942;84;20920;-67
2021/07/25 02:51:34;;;;;;;18.25;9.00;;;;;;;17.22;77.45;101070.83;1744914;81;21020;-67
2021/07/25 02:54:02;;;;;;;17.48;9.45;;;;;;;17.23;77.42;101068.06;1744720;81;20842;-67
2021/07/25 02:56:29;;;;;;;18.75;8.70;;;;;;;17.26;77.47;101070.95;1744725;82;21151;-68
2021/07/25 02:58:56;;;;;;;16.42;8.90;;;;;;;17.28;77.51;101070.34;1744746;81;20933;-68
2021/07/25 03:01:25;;;;;;;15.98;8.55;;;;;;;17.30;77.56;101073.71;1746059;81;21442;-68
2021/07/25 03:03:52;;;;;;;21.52;9.48;;;;;;;17.31;77.61;101068.75;1758005;80;20841;-67
2021/07/25 03:06:19;;;;;;;16.48;9.20;;;;;;;17.34;77.63;101070.69;1758121;81;20868;-67
2021/07/25 03:08:46;;;;;;;11.15;7.53;;;;;;;17.36;77.66;101075.38;1758210;80;21787;-67
2021/07/25 03:11:13;;;;;;;13.30;8.80;;;;;;;17.40;77.52;101074.13;1721970;82;20880;-66
2021/07/25 03:13:40;;;;;;;18.62;8.85;;;;;;;17.40;77.52;101074.13;1721959;83;20852;-67
2021/07/25 03:16:09;;;;;;;17.20;9.33;;;;;;;17.45;77.73;101085.69;1721874;82;21420;-67
2021/07/25 03:18:36;;;;;;;18.30;8.38;;;;;;;17.48;77.78;101089.44;1721974;83;21381;-67
2021/07/25 03:21:04;;;;;;;22.17;10.38;;;;;;;17.53;77.69;101087.73;1722150;83;21168;-66
2021/07/25 03:23:31;;;;;;;16.50;9.28;;;;;;;17.56;77.63;101091.45;1703759;84;20933;-67
2021/07/25 03:25:58;;;;;;;15.00;9.05;;;;;;;17.60;77.62;101100.84;1703824;84;20893;-67
2021/07/25 03:28:25;;;;;;;21.33;10.72;;;;;;;17.62;77.60;101097.58;1703666;84;21402;-67
2021/07/25 03:30:52;;;;;;;19.75;10.75;;;;;;;17.66;77.59;101101.67;1703810;84;21012;-67
2021/07/25 03:33:20;;;;;;;19.80;10.63;;;;;;;17.72;77.71;101104.28;1703703;84;22024;-67
2021/07/25 03:35:47;;;;;;;17.70;11.15;;;;;;;17.78;77.67;101102.45;1703863;84;20949;-66
2021/07/25 03:38:15;;;;;;;18.37;9.60;;;;;;;17.84;77.70;101103.31;1703799;84;21059;-67
2021/07/25 03:40:42;;;;;;;25.52;10.32;;;;;;;17.93;77.47;101112.33;1703675;84;20886;-67
2021/07/25 03:43:10;;;;;;;15.85;10.43;;;;;;;17.99;77.48;101114.48;1703731;84;21510;-67
2021/07/25 03:45:45;;;;;;;15.35;10.35;;;;;;;18.08;77.32;101115.03;1703785;84;21346;-67
2021/07/25 03:48:12;;;;;;;16.60;10.32;;;;;;;18.18;77.10;101117.74;1681268;84;20857;-67
2021/07/25 03:50:42;;;;;;;22.32;11.57;;;;;;;18.29;76.42;101121.66;1703770;84;20897;-67
2021/07/25 03:53:09;;;;;;;14.47;10.53;;;;;;;18.39;75.82;101123.06;1704010;84;20909;-68
2021/07/25 03:55:37;;;;;;;15.53;10.72;;;;;;;18.50;75.55;101126.11;1703836;84;21543;-68
2021/07/25 04:00:37;;;;;;;30.32;11.57;;;;;;;18.73;74.96;101133.45;1703854;84;20949;-68
2021/07/25 04:03:04;;;;;;;18.87;11.95;;;;;;;18.84;74.66;101122.27;1698495;84;21489;-69
2021/07/25 04:05:31;;;;;;;21.33;10.03;;;;;;;18.97;74.42;101123.38;1708639;84;21378;-67
2021/07/25 04:08:09;;;;;;;17.62;10.10;;;;;;;19.09;74.12;101124.11;1708576;84;20917;-65
2021/07/25 04:10:42;;;;;;;16.85;10.55;;;;;;;19.20;73.77;101126.66;1708464;83;20992;-66
2021/07/25 04:13:09;;;;;;;16.48;10.70;;;;;;;19.30;73.47;101124.50;1708606;83;20944;-67
2021/07/25 04:15:41;;;;;;;21.15;11.45;;;;;;;19.39;73.13;101127.20;1708476;84;20988;-66
2021/07/25 04:18:08;;;;;;;15.43;9.68;;;;;;;19.46;72.87;101130.16;1708634;83;20934;-67
2021/07/25 04:20:36;;;;;;;20.85;10.78;;;;;;;19.54;72.82;101131.66;1708778;84;21378;-66
2021/07/25 04:23:03;;;;;;;17.17;10.00;;;;;;;19.65;72.55;101131.52;1708502;84;21148;-67
2021/07/25 04:25:30;;;;;;;15.03;10.32;;;;;;;19.84;72.29;101136.53;1708799;84;21035;-66
2021/07/25 04:27:59;;;;;;;17.12;9.33;;;;;;;20.17;71.60;101131.77;1708566;83;20905;-68
2021/07/25 04:30:28;;;;;;;15.15;9.08;;;;;;;20.61;70.55;101130.77;1708526;84;20988;-66
2021/07/25 04:32:57;;;;;;;15.55;10.75;;;;;;;21.10;68.98;101129.60;1708483;84;20996;-68
2021/07/25 04:35:26;;;;;;;13.85;10.65;;;;;;;21.59;67.51;101134.68;1708749;84;21135;-67
2021/07/25 04:37:58;;;;;;;14.47;9.80;;;;;;;22.13;66.13;101141.34;1708559;84;20913;-67
2021/07/25 04:40:24;;;;;;;12.73;9.80;;;;;;;22.61;64.74;101134.70;1708314;83;20957;-68
2021/07/25 04:42:57;;;;;;;12.93;9.88;;;;;;;23.10;63.27;101131.42;1708585;84;21372;-67
2021/07/25 04:45:43;;;;;;;13.70;9.63;;;;;;;23.56;61.90;101136.74;1708482;84;20861;-68
2021/07/25 04:48:24;;;;;;;13.30;9.40;;;;;;;24.02;60.47;101135.50;1680697;84;21605;-68
2021/07/25 04:50:52;;;;;;;12.20;9.13;;;;;;;24.49;58.89;101134.81;1708507;84;20933;-68
2021/07/25 04:53:25;;;;;;;12.45;9.20;;;;;;;24.94;57.56;101136.84;1708627;84;21491;-66
2021/07/25 04:55:58;;;;;;;;;;;;;;;25.31;56.62;101138.06;1711174;83;20941;-67
2021/07/25 04:58:50;;;;;;;10.13;9.08;;;;;;;25.63;55.47;101141.06;1708257;84;20121;-67
2021/07/25 05:01:21;;;;;;;10.60;8.55;;;;;;;25.94;55.08;101139.34;1708695;83;21790;-67
2021/07/25 05:03:50;;;;;;;14.23;9.25;;;;;;;26.28;54.02;101137.55;1708399;83;21419;-68
2021/07/25 05:06:18;;;;;;;11.70;9.13;;;;;;;26.57;53.28;101141.30;1708710;83;20898;-67
2021/07/25 05:08:47;;;;;;;13.10;9.00;;;;;;;26.91;52.27;101145.31;1708774;84;20905;-68
2021/07/25 05:11:24;;;;;;;16.05;9.45;;;;;;;27.25;51.41;101143.38;1708469;83;21513;-68
2021/07/25 05:13:54;;;;;;;10.95;9.35;;;;;;;27.59;50.58;101144.58;1708811;84;21130;-68
2021/07/25 05:16:36;;;;;;;10.78;8.95;;;;;;;27.90;49.82;101151.03;1708523;84;20901;-68
2021/07/25 05:19:47;;;;;;;12.40;8.45;;;;;;;28.21;49.00;101152.55;1708766;84;21538;-68
2021/07/25 05:22:37;;;;;;;10.75;8.78;;;;;;;28.51;48.14;101150.00;1708132;84;21443;-67
2021/07/25 05:25:05;;;;;;;10.63;8.28;;;;;;;28.85;47.49;101156.95;1708133;83;21494;-67
2021/07/25 05:27:41;;;;;;;15.08;8.65;;;;;;;29.08;47.01;101153.94;1708537;84;21148;-68
2021/07/25 05:30:11;;;;;;;14.30;8.65;;;;;;;29.25;46.63;101147.18;1708460;84;20980;-67
2021/07/25 05:32:38;;;;;;;10.03;8.13;;;;;;;29.51;45.92;101147.78;1708627;83;21450;-67
2021/07/25 05:35:07;;;;;;;11.65;8.80;;;;;;;29.82;44.94;101145.59;1708922;84;21039;-67
2021/07/25 05:37:34;;;;;;;9.35;8.10;;;;;;;30.11;43.66;101149.23;1708509;84;21427;-68
2021/07/25 05:40:00;;;;;;;13.83;7.72;;;;;;;30.33;43.29;101147.70;1708522;83;21865;-66
2021/07/25 05:42:27;;;;;;;11.50;8.08;;;;;;;30.56;43.07;101143.17;1708444;83;20948;-68
2021/07/25 05:44:54;;;;;;;9.73;7.90;;;;;;;30.79;42.77;101145.39;1708680;84;21557;-67
2021/07/25 05:47:22;;;;;;;8.53;7.70;;;;;;;31.00;42.51;101142.15;1708486;84;20961;-67
2021/07/25 05:49:50;;;;;;;13.70;8.73;;;;;;;31.15;42.27;101136.76;1708572;83;20881;-68
2021/07/25 05:52:20;;;;;;;10.58;9.58;;;;;;;31.30;42.05;101148.66;1708439;84;21271;-68
2021/07/25 05:54:48;;;;;;;14.45;8.28;;;;;;;31.44;41.88;101142.69;1708294;83;20972;-68
2021/07/25 05:57:15;;;;;;;13.95;9.05;;;;;;;31.55;40.40;101135.71;1708534;84;20905;-67
2021/07/25 05:59:42;;;;;;;13.32;8.83;;;;;;;31.56;40.32;101134.68;1708119;84;20882;-68
2021/07/25 06:02:09;;;;;;;11.30;8.18;;;;;;;31.69;39.83;101130.52;1708244;83;20858;-69
2021/07/25 06:04:36;;;;;;;8.95;8.00;;;;;;;31.90;39.59;101136.62;1708537;84;21558;-68
2021/07/25 06:07:03;;;;;;;15.98;8.50;;;;;;;32.13;39.54;101140.95;1708486;84;20905;-69
2021/07/25 06:09:32;;;;;;;29.02;13.78;;;;;;;32.37;39.29;101139.77;1708537;83;20905;-78
2021/07/25 06:11:59;;;;;;;14.28;8.85;;;;;;;32.58;38.35;101146.70;1708508;84;20949;-79
2021/07/25 06:17:18;;;;;;;16.17;9.98;;;;;;;32.61;38.19;101143.53;1797708;79;22779;-78
2021/07/25 06:19:45;;;;;;;13.45;10.03;;;;;;;32.62;38.21;101140.59;1758633;80;21480;-77
2021/07/25 06:22:13;;;;;;;11.40;8.10;;;;;;;32.81;38.35;101142.77;1758427;80;22298;-79
2021/07/25 06:24:41;;;;;;;11.53;7.85;;;;;;;33.06;37.89;101142.41;1756356;80;20905;-76
2021/07/25 06:27:09;;;;;;;11.50;8.10;;;;;;;33.28;37.10;101142.21;1758400;81;20873;-80
2021/07/25 06:29:36;;;;;;;12.33;7.85;;;;;;;33.44;36.74;101138.03;1758257;80;21386;-79
2021/07/25 06:32:07;;;;;;;10.60;8.88;;;;;;;33.54;36.68;101148.34;1758253;81;20884;-79
2021/07/25 06:34:37;;;;;;;13.35;9.00;;;;;;;33.60;36.36;101146.92;1758233;80;21136;-79
2021/07/25 06:37:05;;;;;;;13.65;8.15;;;;;;;33.73;36.54;101146.40;1758297;81;21224;-78
2021/07/25 06:39:32;;;;;;;12.47;9.60;;;;;;;33.96;36.18;101147.81;1758411;81;20877;-78
2021/07/25 06:41:58;;;;;;;9.15;7.60;;;;;;;34.10;35.94;101144.33;1758234;81;20932;-79
2021/07/25 06:44:25;;;;;;;10.32;7.83;;;;;;;34.24;35.46;101147.16;1758767;80;20964;-77
2021/07/25 06:46:53;;;;;;;10.72;8.50;;;;;;;34.19;34.82;101149.74;1758747;81;21538;-79
2021/07/25 06:49:20;;;;;;;9.98;8.35;;;;;;;34.28;34.64;101148.03;1758207;81;21373;-79
2021/07/25 06:51:47;;;;;;;10.13;7.83;;;;;;;34.41;34.35;101147.25;1758416;80;20920;-68
2021/07/25 06:54:14;;;;;;;18.02;9.40;;;;;;;34.57;34.14;101147.05;1758562;81;21921;-68
2021/07/25 06:56:41;;;;;;;12.68;8.63;;;;;;;34.62;33.59;101147.77;1758393;81;20920;-70
2021/07/25 06:59:08;;;;;;;12.70;7.65;;;;;;;34.51;33.47;101150.76;1758585;81;21108;-70
2021/07/25 07:01:36;;;;;;;10.45;7.33;;;;;;;34.37;33.37;101150.16;1758236;80;20893;-70
2021/07/25 07:04:03;;;;;;;14.20;7.92;;;;;;;34.32;34.07;101154.67;1758460;80;20924;-72
2021/07/25 07:06:29;;;;;;;16.77;8.98;;;;;;;34.34;33.41;101153.36;1758558;81;21394;-69
2021/07/25 07:08:58;;;;;;;14.40;7.60;;;;;;;34.43;32.91;101149.75;1758356;81;20885;-70
2021/07/25 07:11:27;;;;;;;13.40;7.97;;;;;;;34.50;32.99;101146.36;1758263;81;21570;-73
2021/07/25 07:13:56;;;;;;;8.15;7.35;;;;;;;34.73;33.37;101148.27;1758379;81;20860;-75
2021/07/25 07:16:23;;;;;;;8.85;7.55;;;;;;;34.84;33.14;101150.65;1758052;81;20853;-73
2021/07/25 07:18:50;;;;;;;7.90;7.08;;;;;;;34.86;32.50;101153.97;1722304;83;20931;-72
2021/07/25 07:21:17;;;;;;;14.98;6.97;;;;;;;34.81;32.35;101151.96;1722502;82;20947;-77
2021/07/25 07:23:43;;;;;;;9.55;7.53;;;;;;;34.71;32.45;101155.00;1722464;83;21108;-76
2021/07/25 07:26:10;;;;;;;14.40;8.30;;;;;;;34.54;32.80;101152.17;1722484;82;20922;-79
2021/07/25 07:28:38;;;;;;;7.33;6.62;;;;;;;34.51;32.98;101148.03;1722060;82;21381;-81
2021/07/25 07:31:05;;;;;;;7.60;6.35;;;;;;;34.61;32.96;101148.78;1722143;83;20939;-78
2021/07/25 07:33:32;;;;;;;8.88;7.30;;;;;;;34.73;33.07;101151.00;1722615;83;20876;-81
2021/07/25 07:35:59;;;;;;;9.50;6.67;;;;;;;34.88;32.86;101146.38;1722581;83;21095;-79
2021/07/25 07:38:26;;;;;;;8.15;5.78;;;;;;;34.99;32.98;101148.23;1722098;83;20923;-81
2021/07/25 07:40:54;;;;;;;10.85;6.42;;;;;;;35.32;32.65;101151.36;1721925;83;20919;-79
2021/07/25 07:43:22;;;;;;;10.90;6.22;;;;;;;35.46;32.01;101148.61;1722146;83;20914;-77
2021/07/25 07:45:50;;;;;;;13.05;7.00;;;;;;;35.50;32.02;101149.78;1721964;82;20844;-71
2021/07/25 07:48:20;;;;;;;6.75;5.42;;;;;;;35.59;32.59;101146.94;1721915;83;21562;-70
2021/07/25 07:50:47;;;;;;;10.48;5.47;;;;;;;35.73;32.48;101144.77;1721900;83;21391;-68
2021/07/25 07:53:14;;;;;;;6.03;5.42;;;;;;;36.01;31.09;101147.12;1721789;82;20998;-67
2021/07/25 07:55:41;;;;;;;7.00;6.15;;;;;;;36.30;30.70;101143.22;1721856;83;21482;-70
2021/07/25 07:58:08;;;;;;;13.72;6.10;;;;;;;36.59;30.46;101146.34;1722070;83;20927;-70
2021/07/25 08:00:35;;;;;;;9.23;6.12;;;;;;;36.83;29.54;101149.69;1721499;82;21974;-68
2021/07/25 08:03:06;;;;;;;10.75;5.42;;;;;;;37.02;29.95;101157.01;1721514;83;20983;-69
2021/07/25 08:05:33;;;;;;;15.32;5.87;;;;;;;37.23;29.61;101154.01;1721637;83;21338;-68
2021/07/25 08:07:59;;;;;;;11.12;5.72;;;;;;;37.36;28.50;101150.05;1721843;83;20935;-68
2021/07/25 08:10:26;;;;;;;10.08;6.35;;;;;;;37.13;28.44;101151.97;1721929;83;21839;-68
2021/07/25 08:12:53;;;;;;;7.15;5.58;;;;;;;37.04;28.59;101155.70;1721886;83;21203;-69
2021/07/25 08:15:20;;;;;;;14.50;5.33;;;;;;;37.05;28.68;101152.42;1721787;82;21036;-67
2021/07/25 08:17:47;;;;;;;8.08;5.65;;;;;;;36.97;29.02;101148.76;1716582;83;20971;-69
2021/07/25 08:20:13;;;;;;;8.23;5.35;;;;;;;36.65;29.62;101157.12;1716396;83;21734;-68
2021/07/25 08:22:40;;;;;;;9.25;5.97;;;;;;;36.61;30.09;101157.88;1716386;82;20868;-69
2021/07/25 08:25:08;;;;;;;12.58;6.58;;;;;;;36.69;28.96;101155.54;1716522;83;21487;-69
2021/07/25 08:27:36;;;;;;;13.03;5.92;;;;;;;36.69;29.28;101153.35;1716347;83;20970;-67
2021/07/25 08:30:07;;;;;;;10.72;5.25;;;;;;;36.73;28.61;101157.23;1716222;83;21425;-67
2021/07/25 08:32:34;;;;;;;6.80;4.80;;;;;;;36.61;28.27;101158.70;1716632;83;21429;-67
2021/07/25 08:35:01;;;;;;;10.50;5.40;;;;;;;36.52;28.87;101161.01;1716050;83;20927;-66
2021/07/25 08:37:32;;;;;;;5.28;4.37;;;;;;;36.55;29.10;101152.84;1715790;82;21152;-66
2021/07/25 08:40:01;;;;;;;6.20;4.62;;;;;;;36.45;28.72;101154.91;1716306;83;21418;-67
2021/07/25 08:42:28;;;;;;;9.30;4.08;;;;;;;36.34;28.40;101154.48;1716421;83;20963;-67
2021/07/25 08:44:56;;;;;;;7.08;3.95;;;;;;;36.52;28.05;101149.27;1716575;82;21002;-68
2021/07/25 08:47:33;;;;;;;9.28;4.33;;;;;;;36.67;28.71;101151.41;1716495;83;20864;-67
2021/07/25 08:50:06;;;;;;;8.50;5.12;;;;;;;36.75;28.14;101147.39;1714417;83;21088;-67
2021/07/25 08:52:38;;;;;;;7.55;4.42;;;;;;;36.75;28.43;101143.30;1716341;82;20931;-67
2021/07/25 08:55:13;;;;;;;8.18;3.85;;;;;;;36.79;28.32;101137.61;1716266;82;20983;-66
2021/07/25 08:57:44;;;;;;;9.93;3.55;;;;;;;36.82;27.43;101139.83;1716495;83;20876;-69
2021/07/25 09:00:14;;;;;;;8.40;4.03;;;;;;;36.75;26.71;101137.83;1716524;83;21370;-66
2021/07/25 09:02:42;;;;;;;8.25;4.00;;;;;;;36.62;26.67;101144.49;1716602;83;21121;-69
2021/07/25 09:05:11;;;;;;;6.22;3.45;;;;;;;36.57;27.35;101142.48;1715810;83;20920;-68
2021/07/25 09:07:40;;;;;;;6.50;2.92;;;;;;;36.63;26.88;101138.78;1716317;83;21417;-67
2021/07/25 09:10:14;;;;;;;8.75;3.35;;;;;;;36.85;27.09;101142.88;1716115;83;21362;-67
2021/07/25 09:12:42;;;;;;;6.25;3.27;;;;;;;37.15;25.73;101138.87;1716665;83;20849;-67
2021/07/25 09:15:17;;;;;;;6.22;3.50;;;;;;;37.37;25.29;101148.39;1716438;83;21846;-68
2021/07/25 09:17:44;;;;;;;6.30;3.58;;;;;;;37.27;24.72;101141.47;1715351;82;20975;-66
2021/07/25 09:20:27;;;;;;;4.80;3.30;;;;;;;37.05;25.19;101134.64;1716425;83;20908;-66
2021/07/25 09:23:04;;;;;;;6.03;3.42;;;;;;;36.82;25.44;101137.09;1716509;83;20903;-67
2021/07/25 09:25:42;;;;;;;7.10;3.05;;;;;;;36.58;25.91;101134.59;1716463;83;20880;-66
2021/07/25 09:28:22;;;;;;;6.53;3.22;;;;;;;36.50;26.08;101137.75;1716756;83;21626;-67
2021/07/25 09:30:49;;;;;;;9.28;4.03;;;;;;;36.42;25.74;101137.66;1716337;83;20884;-68
2021/07/25 09:33:33;;;;;;;5.30;3.47;;;;;;;36.42;25.87;101139.03;1716635;83;20928;-68
2021/07/25 09:36:23;;;;;;;8.98;3.83;;;;;;;36.38;25.71;101143.34;1716418;83;21409;-70
2021/07/25 09:38:50;;;;;;;6.50;4.45;;;;;;;36.35;25.70;101134.81;1716626;82;20935;-69
2021/07/25 09:41:33;;;;;;;3.92;3.40;;;;;;;36.15;25.82;101132.61;1716625;82;21582;-68
2021/07/25 09:44:11;;;;;;;9.58;3.60;;;;;;;35.93;25.89;101131.14;1716508;83;20995;-69
2021/07/25 09:46:45;;;;;;;5.12;3.62;;;;;;;35.59;25.33;101133.30;1752766;81;20979;-67
2021/07/25 09:49:12;;;;;;;12.37;4.60;;;;;;;35.36;26.57;101136.98;1752225;81;21591;-69
2021/07/25 09:51:45;;;;;;;6.78;3.87;;;;;;;35.24;26.78;101137.56;1752482;82;20876;-69
2021/07/25 09:54:09;;;;;;;6.67;4.22;;;;;;;35.18;26.45;101138.56;1750917;81;22003;-73
2021/07/25 09:56:37;;;;;;;11.28;4.20;;;;;;;35.04;27.47;101138.82;1752338;80;20975;-69
2021/07/25 09:59:24;;;;;;;5.78;3.65;;;;;;;34.86;27.12;101133.52;1752766;82;20904;-73
2021/07/25 10:01:51;;;;;;;7.70;3.70;;;;;;;34.53;27.07;101132.28;1752688;82;21031;-73
2021/07/25 10:04:22;;;;;;;6.08;3.92;;;;;;;34.36;27.65;101138.98;1752462;82;21045;-73
2021/07/25 10:06:52;;;;;;;;;;;;;;;34.40;28.19;101136.62;1718895;83;20856;-71
2021/07/25 10:09:21;;;;;;;14.40;4.10;;;;;;;34.57;28.02;101135.34;1700560;84;20411;-74
2021/07/25 10:11:55;;;;;;;8.58;4.10;;;;;;;34.79;27.77;101127.39;1708677;83;20928;-72
2021/07/25 10:14:21;;;;;;;4.47;3.45;;;;;;;35.01;27.48;101126.20;1708375;83;20909;-73
2021/07/25 10:16:53;;;;;;;4.67;3.52;;;;;;;35.01;26.41;101133.02;1706090;83;21367;-73
2021/07/25 10:19:39;;;;;;;4.87;3.62;;;;;;;34.86;26.52;101134.88;1700947;84;21154;-72
2021/07/25 10:22:09;;;;;;;6.30;4.03;;;;;;;34.67;26.81;101136.96;1700716;83;21550;-71
2021/07/25 10:24:38;;;;;;;6.42;3.40;;;;;;;34.70;26.55;101140.55;1701000;83;21407;-72
2021/07/25 10:27:05;;;;;;;7.42;3.65;;;;;;;34.67;27.01;101142.41;1701251;84;21562;-72
2021/07/25 10:29:32;;;;;;;6.50;3.55;;;;;;;34.88;27.59;101138.20;1700909;83;20854;-73
2021/07/25 10:32:00;;;;;;;5.78;3.37;;;;;;;35.13;25.58;101137.94;1701049;84;21506;-69
2021/07/25 10:34:30;;;;;;;8.90;3.75;;;;;;;35.28;25.69;101142.31;1700853;83;21019;-76
2021/07/25 10:36:57;;;;;;;10.98;4.15;;;;;;;35.50;25.57;101145.69;1701054;84;20945;-75
2021/07/25 10:39:24;;;;;;;7.78;4.87;;;;;;;35.64;24.01;101147.08;1700831;84;20965;-75
2021/07/25 10:41:53;;;;;;;8.10;4.95;;;;;;;35.78;23.81;101138.02;1701153;84;20973;-77
2021/07/25 10:44:20;;;;;;;7.95;4.97;;;;;;;35.93;23.45;101141.55;1700904;83;21188;-79
2021/07/25 10:46:47;;;;;;;9.90;4.65;;;;;;;36.01;24.23;101145.20;1700794;84;20953;-77
2021/07/25 10:49:18;;;;;;;7.12;4.00;;;;;;;36.15;24.25;101139.44;1700820;83;20893;-77
2021/07/25 10:51:58;;;;;;;5.43;3.27;;;;;;;36.34;24.40;101141.36;1701070;84;20909;-76
2021/07/25 10:54:28;;;;;;;6.70;4.28;;;;;;;36.53;23.86;101141.37;1701097;83;21020;-74
2021/07/25 10:57:09;;;;;;;6.20;4.30;;;;;;;36.69;22.90;101140.51;1700785;83;21514;-73
2021/07/25 10:59:44;;;;;;;4.85;4.28;;;;;;;36.83;23.68;101135.48;1701099;83;20913;-69
2021/07/25 11:02:24;;;;;;;6.80;3.60;;;;;;;36.72;23.55;101137.25;1700982;83;20958;-72
2021/07/25 11:04:57;;;;;;;3.98;3.65;;;;;;;36.71;24.42;101136.98;1701231;84;20957;-71
2021/07/25 11:07:29;;;;;;;9.30;3.67;;;;;;;36.65;24.17;101139.91;1701254;84;20901;-71
2021/07/25 11:10:10;;;;;;;9.80;4.72;;;;;;;36.77;24.96;101135.67;1701536;83;21144;-71
2021/07/25 11:12:58;;;;;;;12.60;5.53;;;;;;;36.89;24.23;101142.66;1701082;84;21117;-72
2021/07/25 11:15:32;;;;;;;6.60;4.22;;;;;;;36.95;22.69;101140.80;1702863;84;20941;-71
2021/07/25 11:18:03;;;;;;;10.08;4.80;;;;;;;36.97;22.81;101146.02;1707193;83;20948;-71
2021/07/25 11:23:33;;;;;;;10.72;6.62;;;;;;;36.81;22.92;101145.02;1708867;84;21536;-74
2021/07/25 11:25:58;;;;;;;11.83;4.90;;;;;;;36.68;23.09;101156.60;1708675;84;21008;-74
2021/07/25 11:28:42;;;;;;;8.68;5.58;;;;;;;36.53;23.42;101144.10;1708996;84;21093;-74
2021/07/25 11:31:12;;;;;;;10.55;6.05;;;;;;;36.38;23.49;101139.78;1709043;84;21079;-73
2021/07/25 11:33:43;;;;;;;8.33;6.33;;;;;;;36.22;23.51;101140.08;1708260;84;20992;-75
2021/07/25 11:36:16;;;;;;;10.98;6.55;;;;;;;36.07;25.00;101133.84;1709123;84;21136;-74
2021/07/25 11:38:55;;;;;;;11.85;5.60;;;;;;;35.92;25.38;101131.69;1708920;84;20940;-74
2021/07/25 11:41:30;;;;;;;6.85;4.65;;;;;;;35.79;24.67;101130.11;1709028;84;20869;-75